Time;durP1;ratioP1;P1;durP2;ratioP2;P2;SDS_P1;SDS_P2;PMS_P1;PMS_P2;Temp;Humidity;BMP_temperature;BMP_pressure;BME280_temperature;BME280_humidity;BME280_pressure;Samples;Min_cycle;Max_cycle;Signal;HPM_P1;HPM_P2
2023/06/04 00:01:53;;;;;;;2.95;1.92;;;16.10;92.40;;;;;;5052580;28;20021;-75
2023/06/04 00:04:19;;;;;;;2.42;1.80;;;16.10;92.20;;;;;;5052049;28;20077;-76
2023/06/04 00:06:45;;;;;;;3.03;1.80;;;16.00;92.00;;;;;;5054402;28;20032;-76
2023/06/04 00:09:10;;;;;;;2.70;2.10;;;16.00;92.50;;;;;;5054424;28;20036;-77
2023/06/04 00:11:36;;;;;;;4.40;2.40;;;15.80;92.20;;;;;;5053695;28;20637;-76
2023/06/04 00:14:02;;;;;;;3.95;1.90;;;15.90;91.70;;;;;;5054842;28;20824;-76
2023/06/04 00:16:28;;;;;;;4.35;2.17;;;15.80;91.30;;;;;;5032747;28;20024;-76
2023/06/04 00:18:54;;;;;;;4.15;2.17;;;15.90;92.00;;;;;;5050846;28;20385;-77
2023/06/04 00:21:20;;;;;;;3.42;2.20;;;15.80;92.60;;;;;;5053631;28;20039;-76
2023/06/04 00:23:45;;;;;;;5.18;1.98;;;15.70;92.60;;;;;;5055329;28;20091;-76
2023/06/04 00:26:11;;;;;;;2.60;2.13;;;15.70;91.60;;;;;;5051967;28;20643;-77
2023/06/04 00:28:36;;;;;;;2.90;2.13;;;15.80;91.90;;;;;;5036806;28;20442;-76
2023/06/04 00:31:05;;;;;;;2.33;2.08;;;15.70;91.80;;;;;;5053386;28;20028;-77
2023/06/04 00:33:31;;;;;;;2.10;1.85;;;15.70;92.30;;;;;;5053608;28;20477;-76
2023/06/04 00:35:57;;;;;;;5.68;2.28;;;15.60;91.90;;;;;;5048680;28;20036;-76
2023/06/04 00:38:23;;;;;;;4.38;1.90;;;15.60;92.00;;;;;;5051721;28;20044;-75
2023/06/04 00:40:49;;;;;;;2.90;1.60;;;15.50;92.00;;;;;;5050686;28;20052;-76
2023/06/04 00:43:15;;;;;;;5.18;2.03;;;15.50;91.50;;;;;;5047246;28;20479;-76
2023/06/04 00:45:41;;;;;;;3.42;2.03;;;15.50;92.00;;;;;;5050149;28;20040;-76
2023/06/04 00:48:07;;;;;;;5.40;2.28;;;15.50;92.40;;;;;;5034003;28;20033;-76
2023/06/04 00:50:35;;;;;;;5.25;2.47;;;15.50;92.10;;;;;;5052359;28;20027;-76
2023/06/04 00:53:01;;;;;;;2.15;1.95;;;15.50;92.30;;;;;;5053082;28;20444;-76
2023/06/04 00:55:28;;;;;;;2.20;2.00;;;15.50;92.30;;;;;;5033904;28;20233;-76
2023/06/04 00:57:54;;;;;;;4.20;2.60;;;15.40;92.50;;;;;;5050024;28;20028;-77
2023/06/04 01:00:20;;;;;;;6.18;2.40;;;15.40;92.10;;;;;;5030598;28;20033;-77
2023/06/04 01:02:51;;;;;;;3.53;2.40;;;15.40;92.20;;;;;;5049309;28;20025;-75
2023/06/04 01:05:43;;;;;;;2.20;2.00;;;15.30;92.30;;;;;;5053809;28;20145;-76
2023/06/04 01:08:10;;;;;;;3.83;2.40;;;15.30;92.80;;;;;;5055047;28;20119;-77
2023/06/04 01:10:36;;;;;;;3.63;2.40;;;15.30;93.00;;;;;;5035961;28;20013;-78
2023/06/04 01:13:02;;;;;;;3.78;2.17;;;15.20;93.10;;;;;;5051752;28;20051;-76
2023/06/04 01:15:27;;;;;;;2.28;2.05;;;15.30;92.50;;;;;;5055567;28;20078;-75
2023/06/04 01:18:02;;;;;;;4.00;2.60;;;15.20;92.40;;;;;;5057828;28;20060;-75
2023/06/04 01:20:42;;;;;;;4.75;2.53;;;15.20;93.00;;;;;;5059721;28;20040;-77
2023/06/04 01:23:42;;;;;;;3.38;2.28;;;15.20;92.70;;;;;;5054465;28;20034;-76
2023/06/04 01:26:10;;;;;;;3.13;2.33;;;15.10;93.10;;;;;;5028139;28;20033;-76
2023/06/04 01:28:37;;;;;;;3.22;2.25;;;15.10;93.60;;;;;;5054774;28;20033;-76
2023/06/04 01:31:07;;;;;;;4.53;2.70;;;15.00;93.50;;;;;;5060105;28;20087;-76
2023/06/04 01:33:33;;;;;;;7.20;2.30;;;15.00;94.30;;;;;;5044986;28;20436;-75
2023/06/04 01:36:00;;;;;;;4.38;2.20;;;15.00;94.00;;;;;;5057067;28;20024;-76
2023/06/04 01:38:26;;;;;;;8.00;2.50;;;15.00;93.70;;;;;;5061634;28;20021;-77
2023/06/04 01:40:58;;;;;;;5.10;2.90;;;14.90;94.90;;;;;;5055638;28;20179;-76
2023/06/04 01:43:24;;;;;;;5.28;2.40;;;14.90;94.30;;;;;;5054049;28;20537;-76
2023/06/04 01:45:50;;;;;;;2.67;2.30;;;14.90;94.00;;;;;;5047442;28;20028;-76
2023/06/04 01:48:15;;;;;;;2.78;2.42;;;14.90;94.70;;;;;;5057261;28;20150;-77
2023/06/04 01:50:41;;;;;;;4.82;2.58;;;14.90;95.00;;;;;;5059016;28;20036;-77
2023/06/04 01:53:07;;;;;;;3.47;2.45;;;14.90;95.40;;;;;;5055085;28;20032;-77
2023/06/04 01:55:33;;;;;;;4.50;2.60;;;14.80;95.20;;;;;;5052204;28;20167;-77
2023/06/04 01:57:59;;;;;;;4.65;2.80;;;14.80;94.50;;;;;;5055404;28;20029;-77
2023/06/04 02:00:25;;;;;;;3.47;2.47;;;14.80;94.30;;;;;;5059770;28;20102;-77
2023/06/04 02:02:51;;;;;;;4.80;2.50;;;14.80;94.20;;;;;;5065047;28;20025;-78
2023/06/04 02:05:17;;;;;;;7.43;2.65;;;14.80;94.80;;;;;;5061042;28;20025;-76
2023/06/04 02:07:45;;;;;;;6.18;3.40;;;14.80;94.50;;;;;;5061596;28;20033;-75
2023/06/04 02:10:13;;;;;;;6.63;3.10;;;14.80;95.80;;;;;;5047076;28;20021;-77
2023/06/04 02:12:41;;;;;;;5.00;2.45;;;14.70;94.70;;;;;;5057441;28;20059;-80
2023/06/04 02:15:09;;;;;;;3.28;2.63;;;14.70;95.90;;;;;;5059669;28;20653;-78
2023/06/04 02:17:39;;;;;;;3.78;2.65;;;14.70;95.80;;;;;;5061847;28;20107;-77
2023/06/04 02:20:06;;;;;;;6.68;2.80;;;14.70;95.30;;;;;;5061150;28;20035;-78
2023/06/04 02:22:31;;;;;;;6.75;2.70;;;14.70;95.50;;;;;;5060560;28;20095;-77
2023/06/04 02:24:57;;;;;;;4.70;2.70;;;14.70;95.40;;;;;;5057893;28;20456;-77
2023/06/04 02:27:23;;;;;;;5.65;2.95;;;14.60;95.20;;;;;;5068804;28;20036;-79
2023/06/04 02:29:48;;;;;;;5.32;3.10;;;14.60;95.80;;;;;;5061675;28;20036;-78
2023/06/04 02:32:14;;;;;;;5.63;2.47;;;14.60;96.50;;;;;;5056865;28;20029;-78
2023/06/04 02:34:40;;;;;;;4.10;2.90;;;14.60;95.90;;;;;;5060252;28;20408;-78
2023/06/04 02:37:06;;;;;;;4.93;3.05;;;14.60;96.40;;;;;;5065331;28;20469;-78
2023/06/04 02:39:31;;;;;;;9.07;2.55;;;14.60;96.60;;;;;;5057150;28;20032;-78
2023/06/04 02:41:57;;;;;;;5.20;2.65;;;14.50;96.30;;;;;;5050244;28;20086;-78
2023/06/04 02:44:23;;;;;;;6.72;3.08;;;14.50;96.20;;;;;;5059407;28;20082;-78
2023/06/04 02:46:48;;;;;;;4.38;2.75;;;14.50;96.30;;;;;;5053615;28;20033;-78
2023/06/04 02:49:14;;;;;;;5.65;2.50;;;14.50;96.70;;;;;;5059498;28;20025;-79
2023/06/04 02:51:43;;;;;;;3.85;2.70;;;14.40;96.70;;;;;;5060727;28;20037;-77
2023/06/04 02:54:09;;;;;;;7.47;2.83;;;14.40;96.70;;;;;;5057544;28;20021;-78
2023/06/04 02:56:37;;;;;;;6.13;2.83;;;14.40;98.80;;;;;;5057926;28;20036;-78
2023/06/04 02:59:03;;;;;;;5.00;2.85;;;14.40;97.30;;;;;;5061232;28;20028;-78
2023/06/04 03:01:29;;;;;;;4.70;2.97;;;14.40;97.70;;;;;;5056203;28;20099;-78
2023/06/04 03:03:55;;;;;;;3.13;2.90;;;14.30;98.70;;;;;;5045204;28;20163;-78
2023/06/04 03:06:22;;;;;;;3.75;2.65;;;14.20;98.70;;;;;;5063122;28;20037;-78
2023/06/04 03:08:48;;;;;;;6.88;2.70;;;14.30;97.80;;;;;;5059437;28;20523;-78
2023/06/04 03:11:14;;;;;;;5.70;3.10;;;14.30;98.30;;;;;;5058453;28;20029;-77
2023/06/04 03:13:40;;;;;;;6.13;2.88;;;14.30;97.90;;;;;;5066447;28;20369;-78
2023/06/04 03:16:12;;;;;;;5.90;2.83;;;14.30;98.40;;;;;;5057821;28;20485;-77
2023/06/04 03:18:41;;;;;;;3.72;2.47;;;14.30;98.80;;;;;;5067860;28;20024;-78
2023/06/04 03:21:08;;;;;;;5.25;2.53;;;14.30;98.70;;;;;;5063193;28;20033;-78
2023/06/04 03:23:35;;;;;;;3.53;2.92;;;14.30;98.60;;;;;;5064048;28;20028;-78
2023/06/04 03:26:04;;;;;;;3.53;2.80;;;14.30;98.70;;;;;;5058593;28;20024;-77
2023/06/04 03:28:31;;;;;;;5.22;3.30;;;14.20;98.60;;;;;;5052339;28;20040;-77
2023/06/04 03:30:56;;;;;;;3.85;2.78;;;14.20;98.80;;;;;;5058325;28;20090;-78
2023/06/04 03:33:22;;;;;;;3.72;3.00;;;14.20;98.40;;;;;;5057533;28;20020;-78
2023/06/04 03:35:48;;;;;;;5.07;2.80;;;14.10;98.40;;;;;;5058144;28;20106;-77
2023/06/04 03:38:15;;;;;;;5.63;2.58;;;14.10;99.80;;;;;;5056401;28;20484;-77
2023/06/04 03:40:41;;;;;;;9.30;3.10;;;14.20;99.50;;;;;;5062542;28;20114;-78
2023/06/04 03:43:06;;;;;;;5.40;2.88;;;14.10;98.60;;;;;;5056481;28;20048;-77
2023/06/04 03:45:32;;;;;;;5.13;2.75;;;14.10;99.40;;;;;;5063639;28;20032;-76
2023/06/04 03:47:58;;;;;;;4.88;2.90;;;14.10;99.90;;;;;;5055634;28;20089;-78
2023/06/04 03:50:23;;;;;;;5.45;3.20;;;14.10;99.90;;;;;;5061707;28;20042;-77
2023/06/04 03:52:50;;;;;;;3.08;2.78;;;14.10;99.90;;;;;;5053542;28;20544;-77
2023/06/04 03:55:15;;;;;;;5.82;2.97;;;14.00;99.90;;;;;;5058798;28;20052;-78
2023/06/04 03:57:41;;;;;;;3.22;2.92;;;14.00;99.90;;;;;;5045874;28;20105;-77
2023/06/04 04:00:12;;;;;;;4.60;3.30;;;14.00;99.90;;;;;;5056304;28;20041;-78
2023/06/04 04:02:39;;;;;;;7.35;3.58;;;14.00;99.90;;;;;;5048421;28;20021;-77
2023/06/04 04:05:06;;;;;;;6.07;3.45;;;14.00;99.90;;;;;;5055226;28;20086;-78
2023/06/04 04:07:31;;;;;;;7.20;3.30;;;14.00;99.80;;;;;;5059956;28;20025;-78
2023/06/04 04:09:57;;;;;;;4.07;3.38;;;14.00;99.70;;;;;;5058369;28;20472;-77
2023/06/04 04:12:22;;;;;;;4.57;2.80;;;14.10;99.80;;;;;;5069319;28;20036;-77
2023/06/04 04:14:48;;;;;;;7.82;3.53;;;14.00;99.90;;;;;;5056403;28;20044;-78
2023/06/04 04:17:14;;;;;;;6.15;3.25;;;14.00;99.90;;;;;;5057297;28;20025;-78
2023/06/04 04:19:41;;;;;;;4.82;3.05;;;14.00;99.90;;;;;;5063977;28;20405;-78
2023/06/04 04:22:08;;;;;;;7.40;2.83;;;14.00;99.90;;;;;;5056807;28;20023;-77
2023/06/04 04:24:36;;;;;;;7.35;3.15;;;14.00;99.90;;;;;;5047017;28;20036;-78
2023/06/04 04:27:03;;;;;;;3.47;2.47;;;14.00;99.90;;;;;;5043010;28;20495;-78
2023/06/04 04:29:32;;;;;;;2.88;2.60;;;13.90;99.90;;;;;;5050629;28;20044;-78
2023/06/04 04:32:02;;;;;;;3.95;2.67;;;13.90;99.90;;;;;;5055554;28;20032;-79
2023/06/04 04:34:28;;;;;;;4.53;3.28;;;13.90;99.90;;;;;;5062512;28;20036;-78
2023/06/04 04:36:54;;;;;;;3.95;3.05;;;13.90;99.90;;;;;;5042128;28;20032;-77
2023/06/04 04:39:26;;;;;;;6.38;3.22;;;13.90;99.90;;;;;;5052387;28;20031;-77
2023/06/04 04:41:52;;;;;;;6.13;3.30;;;13.90;99.90;;;;;;5058372;28;20064;-78
2023/06/04 04:44:18;;;;;;;8.30;3.80;;;13.90;99.90;;;;;;5055390;28;20478;-78
2023/06/04 04:46:43;;;;;;;3.30;3.00;;;14.00;99.90;;;;;;5062337;28;20028;-79
2023/06/04 04:49:09;;;;;;;6.00;3.38;;;14.00;99.90;;;;;;5055034;28;20036;-78
2023/06/04 04:51:35;;;;;;;4.70;2.85;;;14.00;99.90;;;;;;5062714;28;20036;-77
2023/06/04 04:54:01;;;;;;;4.82;2.97;;;13.90;99.90;;;;;;5057042;28;20032;-77
2023/06/04 04:56:27;;;;;;;7.88;3.20;;;13.90;99.90;;;;;;5055989;28;20517;-78
2023/06/04 04:58:53;;;;;;;5.13;3.08;;;14.00;99.90;;;;;;5038542;28;20145;-77
2023/06/04 05:01:20;;;;;;;3.67;2.92;;;14.10;99.90;;;;;;5064990;28;20448;-76
2023/06/04 05:03:45;;;;;;;3.05;2.75;;;14.20;99.90;;;;;;5058036;28;20025;-77
2023/06/04 05:06:11;;;;;;;4.10;3.38;;;14.20;99.90;;;;;;5066717;28;20028;-78
2023/06/04 05:08:37;;;;;;;5.45;2.60;;;14.30;99.90;;;;;;5057204;28;20021;-78
2023/06/04 05:11:03;;;;;;;6.35;3.22;;;14.30;99.90;;;;;;5060445;28;20103;-77
2023/06/04 05:13:28;;;;;;;3.30;3.00;;;14.30;99.90;;;;;;5056390;28;20152;-77
2023/06/04 05:15:54;;;;;;;6.47;3.05;;;14.40;99.90;;;;;;5056662;28;20103;-77
2023/06/04 05:18:28;;;;;;;5.88;3.10;;;14.40;99.90;;;;;;5058635;28;20481;-78
2023/06/04 05:20:55;;;;;;;4.90;3.17;;;14.40;99.90;;;;;;5041931;28;20040;-78
2023/06/04 05:23:21;;;;;;;3.80;3.40;;;14.40;99.90;;;;;;5056216;28;20044;-78
2023/06/04 05:25:48;;;;;;;4.72;3.75;;;14.30;99.90;;;;;;5053645;28;20380;-78
2023/06/04 05:28:15;;;;;;;4.18;3.42;;;14.40;99.90;;;;;;5057969;28;20036;-78
2023/06/04 05:30:41;;;;;;;6.90;3.90;;;14.40;99.90;;;;;;5040297;28;20039;-78
2023/06/04 05:33:17;;;;;;;3.47;3.17;;;14.40;99.90;;;;;;5064735;28;20019;-76
2023/06/04 05:35:45;;;;;;;5.97;3.22;;;14.50;99.90;;;;;;5059888;28;20029;-77
2023/06/04 05:38:16;;;;;;;4.55;3.42;;;14.50;99.90;;;;;;5062993;28;20055;-77
2023/06/04 05:40:43;;;;;;;6.38;3.63;;;14.50;99.90;;;;;;5064098;28;20393;-77
2023/06/04 05:43:08;;;;;;;6.00;3.33;;;14.60;99.90;;;;;;5061680;28;20029;-77
2023/06/04 05:45:34;;;;;;;4.95;3.35;;;14.50;99.90;;;;;;5049965;28;20989;-76
2023/06/04 05:48:00;;;;;;;5.30;3.35;;;14.50;99.90;;;;;;5060326;28;20125;-77
2023/06/04 05:50:25;;;;;;;5.13;3.55;;;14.60;99.90;;;;;;5060851;28;20123;-76
2023/06/04 05:52:51;;;;;;;3.67;3.38;;;14.70;99.90;;;;;;5058973;28;20362;-77
2023/06/04 05:55:17;;;;;;;5.28;2.95;;;14.70;99.90;;;;;;5045893;28;20112;-77
2023/06/04 05:57:42;;;;;;;6.88;3.47;;;14.70;99.90;;;;;;5042714;28;20017;-78
2023/06/04 06:00:10;;;;;;;4.78;3.20;;;14.70;99.90;;;;;;5062247;28;20032;-77
2023/06/04 06:02:37;;;;;;;8.65;3.55;;;14.80;99.90;;;;;;5060522;28;20143;-77
2023/06/04 06:05:03;;;;;;;6.72;3.88;;;14.80;99.90;;;;;;5045924;28;20054;-78
2023/06/04 06:07:29;;;;;;;5.45;3.35;;;14.80;99.90;;;;;;5065086;28;20028;-77
2023/06/04 06:09:55;;;;;;;6.68;3.22;;;14.90;99.90;;;;;;5060014;28;20084;-76
2023/06/04 06:12:21;;;;;;;4.80;3.20;;;14.90;99.90;;;;;;5060520;28;20037;-77
2023/06/04 06:14:46;;;;;;;6.78;3.28;;;14.90;99.90;;;;;;5063612;28;20535;-77
2023/06/04 06:17:12;;;;;;;10.13;3.90;;;15.00;99.90;;;;;;5058670;28;20492;-77
2023/06/04 06:19:38;;;;;;;6.35;3.70;;;15.00;99.90;;;;;;5065015;28;20040;-77
2023/06/04 06:22:04;;;;;;;6.00;3.50;;;15.10;99.90;;;;;;5059645;28;20094;-79
2023/06/04 06:24:30;;;;;;;5.20;3.00;;;15.00;99.90;;;;;;5064839;28;20028;-80
2023/06/04 06:26:55;;;;;;;5.35;3.60;;;15.10;99.90;;;;;;5067592;28;20148;-79
2023/06/04 06:29:21;;;;;;;3.72;2.90;;;15.20;99.90;;;;;;5059815;28;20025;-78
2023/06/04 06:31:47;;;;;;;6.45;3.05;;;15.30;99.90;;;;;;5064391;28;20047;-79
2023/06/04 06:34:13;;;;;;;4.10;2.47;;;15.30;99.90;;;;;;5060963;28;20527;-78
2023/06/04 06:36:38;;;;;;;6.20;3.08;;;15.40;99.90;;;;;;5058843;28;20104;-77
2023/06/04 06:39:04;;;;;;;4.47;3.20;;;15.50;99.90;;;;;;5062468;28;20119;-78
2023/06/04 06:41:33;;;;;;;3.78;2.53;;;15.60;99.90;;;;;;5059038;28;20420;-78
2023/06/04 06:43:59;;;;;;;5.63;3.22;;;15.70;99.90;;;;;;5058873;28;20029;-78
2023/06/04 06:46:24;;;;;;;4.00;3.13;;;15.70;99.90;;;;;;5064015;28;20039;-78
2023/06/04 06:48:50;;;;;;;7.45;2.85;;;15.80;99.90;;;;;;5042941;28;20029;-79
2023/06/04 06:51:16;;;;;;;6.45;3.10;;;15.90;99.90;;;;;;5060807;28;20474;-77
2023/06/04 06:53:42;;;;;;;3.13;2.83;;;16.10;99.90;;;;;;5061996;28;20039;-76
2023/06/04 06:56:08;;;;;;;5.50;3.17;;;16.30;99.90;;;;;;5057409;28;20102;-76
2023/06/04 06:58:34;;;;;;;5.75;3.10;;;16.40;99.90;;;;;;5065653;28;20420;-76
2023/06/04 07:01:00;;;;;;;7.13;3.47;;;16.60;99.90;;;;;;5058382;28;20047;-76
2023/06/04 07:03:26;;;;;;;4.40;3.72;;;16.70;99.90;;;;;;5046422;28;20025;-76
2023/06/04 07:05:52;;;;;;;2.88;2.40;;;16.90;99.90;;;;;;5056990;28;20108;-76
2023/06/04 07:08:17;;;;;;;8.23;3.20;;;17.10;99.90;;;;;;5044476;28;20103;-77
2023/06/04 07:10:43;;;;;;;5.00;2.60;;;17.30;99.90;;;;;;5057374;28;20029;-76
2023/06/04 07:13:09;;;;;;;4.97;2.53;;;17.40;99.90;;;;;;5061592;28;20023;-78
2023/06/04 07:15:35;;;;;;;9.63;2.75;;;17.50;99.90;;;;;;5060958;28;20037;-76
2023/06/04 07:18:00;;;;;;;4.13;2.97;;;17.60;99.90;;;;;;5058175;28;20025;-77
2023/06/04 07:20:26;;;;;;;3.35;2.42;;;17.70;99.90;;;;;;5040848;28;20036;-76
2023/06/04 07:22:52;;;;;;;3.92;2.55;;;17.80;99.90;;;;;;5040621;28;20077;-77
2023/06/04 07:25:17;;;;;;;2.72;2.50;;;17.90;99.90;;;;;;5062024;28;20035;-76
2023/06/04 07:27:43;;;;;;;4.25;2.47;;;18.10;99.90;;;;;;5057165;28;20702;-76
2023/06/04 07:30:09;;;;;;;5.15;2.33;;;18.10;99.90;;;;;;5063844;28;20020;-76
2023/06/04 07:32:35;;;;;;;4.28;2.60;;;18.20;99.90;;;;;;5053598;28;20104;-77
2023/06/04 07:35:02;;;;;;;2.97;2.42;;;18.30;99.90;;;;;;5059101;28;20103;-76
2023/06/04 07:37:28;;;;;;;5.28;2.33;;;18.40;99.00;;;;;;5054983;28;20472;-77
2023/06/04 07:39:53;;;;;;;3.95;2.78;;;18.30;99.90;;;;;;5049927;28;20044;-77
2023/06/04 07:42:19;;;;;;;5.47;2.67;;;18.40;98.30;;;;;;5058985;28;20028;-77
2023/06/04 07:44:45;;;;;;;4.88;2.15;;;18.60;99.60;;;;;;5056475;28;20028;-76
2023/06/04 07:47:10;;;;;;;6.25;2.42;;;18.80;99.90;;;;;;5056372;28;20028;-76
2023/06/04 07:49:36;;;;;;;2.50;2.30;;;18.90;98.50;;;;;;5061462;28;20032;-76
2023/06/04 07:52:02;;;;;;;9.90;2.13;;;18.90;99.20;;;;;;5059327;28;20106;-77
2023/06/04 07:54:27;;;;;;;2.72;2.50;;;19.20;98.90;;;;;;5054569;28;20162;-77
2023/06/04 07:56:55;;;;;;;6.72;2.22;;;19.30;97.80;;;;;;5059170;28;20035;-75
2023/06/04 07:59:22;;;;;;;4.10;2.50;;;19.30;99.00;;;;;;5061771;28;20373;-76
2023/06/04 08:01:51;;;;;;;3.90;2.30;;;19.30;99.10;;;;;;5055891;28;20029;-75
2023/06/04 08:04:16;;;;;;;5.35;2.33;;;19.40;98.20;;;;;;5061357;28;20044;-75
2023/06/04 08:06:44;;;;;;;5.43;2.35;;;19.60;97.90;;;;;;5058404;28;20029;-75
2023/06/04 08:09:11;;;;;;;4.00;2.30;;;19.90;96.60;;;;;;5044187;28;20032;-77
2023/06/04 08:11:37;;;;;;;4.00;1.90;;;20.10;97.50;;;;;;5055410;28;20023;-77
2023/06/04 08:14:02;;;;;;;2.40;2.10;;;20.10;99.30;;;;;;5057201;28;20033;-76
2023/06/04 08:16:37;;;;;;;7.65;2.17;;;20.20;97.20;;;;;;5078935;28;20415;-76
2023/06/04 08:19:02;;;;;;;4.32;2.42;;;20.20;96.10;;;;;;5070383;28;20037;-77
2023/06/04 08:21:29;;;;;;;3.60;1.92;;;20.30;95.60;;;;;;5066212;28;20466;-77
2023/06/04 08:23:55;;;;;;;3.92;1.90;;;20.40;95.70;;;;;;5071210;28;20024;-77
2023/06/04 08:26:21;;;;;;;3.10;1.95;;;20.70;95.10;;;;;;5074264;28;20531;-77
2023/06/04 08:28:50;;;;;;;3.80;2.00;;;20.80;95.10;;;;;;5069247;28;20033;-76
2023/06/04 08:31:16;;;;;;;6.03;2.30;;;21.00;96.00;;;;;;5078824;28;20017;-76
2023/06/04 08:33:44;;;;;;;6.65;2.17;;;21.20;94.40;;;;;;5067363;28;20016;-75
2023/06/04 08:36:10;;;;;;;4.55;1.70;;;21.30;95.50;;;;;;5068850;28;20052;-79
2023/06/04 08:38:36;;;;;;;3.67;1.92;;;21.50;94.90;;;;;;5074010;28;20476;-76
2023/06/04 08:41:12;;;;;;;2.80;1.45;;;21.60;93.80;;;;;;5065515;28;20066;-76
2023/06/04 08:43:39;;;;;;;4.07;1.48;;;21.80;93.40;;;;;;5074919;28;20538;-77
2023/06/04 08:46:08;;;;;;;6.82;2.15;;;21.80;94.00;;;;;;5071578;28;20029;-77
2023/06/04 08:48:35;;;;;;;4.38;1.95;;;21.80;93.10;;;;;;5065460;28;20033;-77
2023/06/04 08:51:05;;;;;;;3.92;1.52;;;21.80;92.50;;;;;;5070811;28;20033;-77
2023/06/04 08:53:31;;;;;;;4.38;1.60;;;22.10;92.90;;;;;;5075487;28;20928;-77
2023/06/04 08:55:57;;;;;;;3.58;1.60;;;22.20;91.90;;;;;;5072766;28;20582;-77
2023/06/04 08:58:24;;;;;;;3.03;1.40;;;22.30;93.30;;;;;;5059774;28;20057;-77
2023/06/04 09:00:50;;;;;;;7.28;1.77;;;22.60;92.70;;;;;;5069849;28;20029;-77
2023/06/04 09:03:18;;;;;;;5.97;2.22;;;22.50;91.60;;;;;;5061639;28;20031;-76
2023/06/04 09:05:47;;;;;;;3.60;1.80;;;22.60;90.90;;;;;;5072075;28;20503;-77
2023/06/04 09:08:17;;;;;;;1.40;1.30;;;22.90;90.40;;;;;;5073546;28;20028;-76
2023/06/04 09:10:46;;;;;;;2.90;1.70;;;23.10;90.80;;;;;;5065956;28;20032;-75
2023/06/04 09:13:15;;;;;;;1.75;1.58;;;23.20;89.40;;;;;;5069855;28;20021;-76
2023/06/04 09:15:40;;;;;;;3.80;1.80;;;23.40;91.50;;;;;;5069536;28;20047;-76
2023/06/04 09:18:06;;;;;;;5.53;2.10;;;23.40;91.60;;;;;;5067876;28;20469;-76
2023/06/04 09:20:32;;;;;;;2.25;1.60;;;23.40;88.80;;;;;;5076942;28;20029;-75
2023/06/04 09:22:58;;;;;;;4.30;1.88;;;23.40;85.50;;;;;;5065892;28;20024;-76
2023/06/04 09:25:26;;;;;;;8.05;1.75;;;23.60;88.20;;;;;;5074999;28;20366;-75
2023/06/04 09:27:55;;;;;;;8.55;1.52;;;23.80;89.00;;;;;;5059628;28;20095;-75
2023/06/04 09:30:21;;;;;;;3.15;1.30;;;23.80;85.20;;;;;;5052993;28;20032;-76
2023/06/04 09:32:47;;;;;;;4.45;1.63;;;23.90;84.10;;;;;;5058882;28;20025;-76
2023/06/04 09:35:17;;;;;;;4.70;1.30;;;24.00;83.00;;;;;;5061990;28;20041;-76
2023/06/04 09:37:53;;;;;;;6.63;1.75;;;24.20;83.70;;;;;;5058422;28;20021;-75
2023/06/04 09:40:19;;;;;;;4.63;1.60;;;24.10;87.40;;;;;;5061747;28;20070;-78
2023/06/04 09:42:48;;;;;;;3.17;1.35;;;24.30;85.70;;;;;;5048480;28;20033;-78
2023/06/04 09:45:30;;;;;;;3.25;1.00;;;24.40;83.60;;;;;;5062026;28;20029;-78
2023/06/04 09:47:57;;;;;;;2.38;1.05;;;24.40;81.90;;;;;;5049160;28;20040;-78
2023/06/04 09:50:30;;;;;;;2.58;1.45;;;24.40;79.80;;;;;;5058838;28;20028;-78
2023/06/04 09:52:56;;;;;;;1.90;1.30;;;24.40;80.90;;;;;;5056028;28;20499;-78
2023/06/04 09:55:22;;;;;;;1.98;1.27;;;24.50;77.00;;;;;;5059431;28;20028;-78
2023/06/04 09:57:50;;;;;;;2.38;1.33;;;24.50;79.40;;;;;;5059868;28;20481;-78
2023/06/04 10:00:27;;;;;;;1.55;1.15;;;24.60;80.20;;;;;;5055516;28;20070;-78
2023/06/04 10:02:58;;;;;;;4.63;1.30;;;24.80;76.90;;;;;;5060355;28;20054;-77
2023/06/04 10:05:25;;;;;;;3.00;1.20;;;24.90;78.10;;;;;;5050927;28;20027;-78
2023/06/04 10:07:53;;;;;;;2.17;1.17;;;24.80;77.40;;;;;;5055491;28;20024;-78
2023/06/04 10:10:25;;;;;;;3.75;0.90;;;24.80;72.50;;;;;;5054603;28;20029;-79
2023/06/04 10:13:00;;;;;;;1.40;1.30;;;24.80;75.70;;;;;;5056551;28;20413;-79
2023/06/04 10:15:26;;;;;;;2.50;1.08;;;24.80;71.80;;;;;;5052061;28;20102;-77
2023/06/04 10:17:53;;;;;;;3.80;1.10;;;24.80;75.00;;;;;;5058744;28;20253;-78
2023/06/04 10:20:20;;;;;;;1.95;1.30;;;25.10;74.50;;;;;;5022450;28;20033;-80
2023/06/04 10:22:48;;;;;;;3.42;1.48;;;25.00;74.90;;;;;;5035806;28;20100;-77
2023/06/04 10:25:15;;;;;;;1.65;1.20;;;25.20;75.30;;;;;;5036704;28;20033;-76
2023/06/04 10:27:41;;;;;;;3.08;1.10;;;25.30;74.60;;;;;;5039309;28;20021;-77
2023/06/04 10:30:07;;;;;;;3.63;1.08;;;25.20;73.40;;;;;;5039559;28;20082;-78
2023/06/04 10:32:34;;;;;;;4.45;1.10;;;25.10;71.90;;;;;;5042687;28;20127;-79
2023/06/04 10:35:07;;;;;;;3.00;1.40;;;25.40;72.00;;;;;;5039706;28;20115;-77
2023/06/04 10:37:34;;;;;;;2.72;1.08;;;25.60;73.90;;;;;;5037187;28;20029;-78
2023/06/04 10:40:00;;;;;;;9.85;1.73;;;25.60;76.10;;;;;;5041965;28;20017;-78
2023/06/04 10:42:26;;;;;;;1.98;1.30;;;25.60;71.40;;;;;;5041327;28;20025;-79
2023/06/04 10:44:54;;;;;;;3.17;1.23;;;25.60;71.00;;;;;;5037658;28;20072;-78
2023/06/04 10:47:25;;;;;;;2.70;1.38;;;25.80;76.00;;;;;;5046221;28;20416;-79
2023/06/04 10:49:52;;;;;;;2.25;1.08;;;26.40;81.40;;;;;;5057728;28;20035;-81
2023/06/04 10:52:18;;;;;;;2.20;1.20;;;26.20;71.40;;;;;;5052496;28;20029;-79
2023/06/04 10:54:45;;;;;;;2.45;1.40;;;26.20;70.70;;;;;;5046576;28;20048;-79
2023/06/04 10:57:16;;;;;;;4.80;1.40;;;26.20;69.00;;;;;;5050548;28;20029;-78
2023/06/04 10:59:57;;;;;;;2.30;1.00;;;26.10;70.20;;;;;;5042655;28;20021;-77
2023/06/04 11:02:23;;;;;;;3.50;1.17;;;25.90;70.80;;;;;;5055729;28;20016;-77
2023/06/04 11:05:01;;;;;;;2.22;1.10;;;26.30;72.00;;;;;;5049487;28;20556;-77
2023/06/04 11:07:27;;;;;;;1.55;1.13;;;26.40;65.80;;;;;;5052039;28;20028;-78
2023/06/04 11:09:53;;;;;;;2.63;1.02;;;26.50;68.40;;;;;;5058936;28;20029;-78
2023/06/04 11:12:19;;;;;;;4.93;1.27;;;26.60;67.40;;;;;;5057875;28;20028;-78
2023/06/04 11:14:55;;;;;;;2.03;1.50;;;26.30;69.90;;;;;;5057608;28;20056;-78
2023/06/04 11:17:20;;;;;;;1.48;1.33;;;26.30;69.70;;;;;;5054012;28;20033;-77
2023/06/04 11:19:47;;;;;;;2.22;1.20;;;26.40;66.20;;;;;;5062130;28;20061;-78
2023/06/04 11:22:12;;;;;;;1.08;0.98;;;26.40;68.00;;;;;;5060617;28;20037;-78
2023/06/04 11:24:38;;;;;;;4.60;1.27;;;26.50;66.40;;;;;;5055432;28;20074;-78
2023/06/04 11:27:04;;;;;;;2.75;1.25;;;26.60;66.30;;;;;;5050816;28;20485;-78
2023/06/04 11:29:30;;;;;;;1.20;1.10;;;26.40;64.10;;;;;;5057771;28;20036;-78
2023/06/04 11:31:57;;;;;;;2.20;1.08;;;26.40;64.80;;;;;;5055864;28;20382;-77
2023/06/04 11:34:27;;;;;;;3.35;1.30;;;26.40;64.70;;;;;;5059950;28;20021;-77
2023/06/04 11:36:53;;;;;;;1.10;1.00;;;26.60;67.40;;;;;;5052463;28;20063;-77
2023/06/04 11:39:20;;;;;;;1.67;1.02;;;26.60;66.00;;;;;;5049464;28;20470;-78
2023/06/04 11:41:46;;;;;;;1.30;1.20;;;26.50;64.80;;;;;;5058142;28;20035;-78
2023/06/04 11:44:12;;;;;;;1.42;1.20;;;26.70;64.40;;;;;;5049957;28;20029;-78
2023/06/04 11:46:44;;;;;;;2.60;1.33;;;26.90;62.80;;;;;;5056339;28;20033;-78
2023/06/04 11:49:17;;;;;;;4.78;1.20;;;26.90;60.70;;;;;;5057928;28;20423;-77
2023/06/04 11:51:51;;;;;;;1.30;1.20;;;27.10;62.10;;;;;;5056027;28;20495;-78
2023/06/04 11:54:18;;;;;;;2.13;1.08;;;27.00;62.90;;;;;;5047853;28;20114;-77
2023/06/04 11:56:44;;;;;;;3.38;1.20;;;27.10;62.10;;;;;;5055052;28;20032;-78
2023/06/04 11:59:15;;;;;;;6.13;1.23;;;27.10;62.70;;;;;;5050047;28;20028;-77
2023/06/04 12:01:45;;;;;;;0.93;0.82;;;27.20;62.40;;;;;;5048877;28;20519;-78
2023/06/04 12:04:16;;;;;;;2.08;1.10;;;26.80;58.90;;;;;;5047340;28;20020;-79
2023/06/04 12:07:00;;;;;;;3.10;1.15;;;26.90;59.80;;;;;;5060427;28;20373;-78
2023/06/04 12:09:40;;;;;;;3.72;0.93;;;27.00;62.40;;;;;;5053573;28;20033;-78
2023/06/04 12:12:07;;;;;;;1.55;1.02;;;27.20;63.60;;;;;;5052017;28;20385;-78
2023/06/04 12:14:34;;;;;;;2.05;1.17;;;27.30;64.50;;;;;;5051997;28;20033;-77
2023/06/04 12:17:02;;;;;;;2.67;0.82;;;27.40;62.70;;;;;;5051630;28;20028;-79
2023/06/04 12:19:28;;;;;;;1.83;1.25;;;27.50;60.90;;;;;;5050409;28;20795;-78
2023/06/04 12:22:01;;;;;;;1.88;1.40;;;27.40;65.00;;;;;;5047969;28;20469;-79
2023/06/04 12:24:28;;;;;;;5.50;1.17;;;27.20;61.80;;;;;;5052062;28;20029;-78
2023/06/04 12:27:08;;;;;;;2.28;0.98;;;27.30;60.90;;;;;;5066347;28;20052;-78
2023/06/04 12:29:34;;;;;;;1.88;1.30;;;27.10;59.80;;;;;;5048246;28;20486;-78
2023/06/04 12:32:07;;;;;;;2.92;0.95;;;27.20;62.30;;;;;;5053014;28;20047;-77
2023/06/04 12:34:34;;;;;;;2.15;1.10;;;27.30;63.00;;;;;;5050459;28;20032;-77
2023/06/04 12:37:00;;;;;;;6.28;1.13;;;27.50;61.00;;;;;;5054703;28;20381;-78
2023/06/04 12:39:26;;;;;;;1.77;1.38;;;27.60;62.90;;;;;;5047950;28;20381;-78
2023/06/04 12:41:51;;;;;;;2.78;1.20;;;27.60;63.20;;;;;;5053816;28;20036;-78
2023/06/04 12:44:17;;;;;;;3.10;1.10;;;27.60;62.40;;;;;;5063002;28;20385;-78
2023/06/04 12:46:43;;;;;;;2.22;1.17;;;27.70;62.70;;;;;;5052974;28;20474;-78
2023/06/04 12:49:08;;;;;;;3.35;1.38;;;27.60;64.60;;;;;;5065517;28;20055;-77